Time;durP1;ratioP1;P1;durP2;ratioP2;P2;SDS_P1;SDS_P2;PMS_P1;PMS_P2;Temp;Humidity;BMP_temperature;BMP_pressure;BME280_temperature;BME280_humidity;BME280_pressure;Samples;Min_cycle;Max_cycle;Signal;HPM_P1;HPM_P2
2022/08/05 00:00:57;;;;;;;6.43;1.95;;;18.50;99.90;;;;;;5062024;28;20040;-71
2022/08/05 00:03:23;;;;;;;6.22;1.73;;;18.50;99.90;;;;;;5060716;28;20426;-70
2022/08/05 00:05:48;;;;;;;6.07;2.20;;;18.50;99.90;;;;;;5067434;28;20473;-70
2022/08/05 00:08:14;;;;;;;5.82;1.70;;;18.50;99.90;;;;;;5062090;28;20102;-70
2022/08/05 00:10:40;;;;;;;7.75;2.13;;;18.50;99.90;;;;;;5065619;28;20048;-70
2022/08/05 00:13:05;;;;;;;5.75;1.70;;;18.40;99.90;;;;;;5059736;28;20036;-70
2022/08/05 00:15:31;;;;;;;7.80;1.90;;;18.40;99.90;;;;;;5061123;28;20088;-70
2022/08/05 00:17:56;;;;;;;5.15;1.48;;;18.40;99.90;;;;;;5055215;28;20033;-70
2022/08/05 00:20:23;;;;;;;4.00;1.05;;;18.40;99.90;;;;;;5057385;28;20041;-70
2022/08/05 00:22:49;;;;;;;5.57;1.70;;;18.40;99.90;;;;;;5062949;28;20048;-70
2022/08/05 00:25:14;;;;;;;5.32;1.70;;;18.30;99.90;;;;;;5062143;28;20048;-70
2022/08/05 00:27:40;;;;;;;4.75;1.23;;;18.40;99.90;;;;;;5060585;28;20041;-70
2022/08/05 00:30:06;;;;;;;5.90;1.50;;;18.30;99.90;;;;;;5060188;28;20102;-70
2022/08/05 00:32:32;;;;;;;4.65;1.38;;;18.40;99.90;;;;;;5061483;28;20051;-70
2022/08/05 00:34:57;;;;;;;8.35;1.70;;;18.40;99.90;;;;;;5059910;28;20040;-70
2022/08/05 00:37:23;;;;;;;5.72;1.80;;;18.40;99.90;;;;;;5066009;28;20032;-70
2022/08/05 00:39:49;;;;;;;5.30;1.40;;;18.40;99.90;;;;;;5056348;28;20045;-71
2022/08/05 00:42:15;;;;;;;6.22;1.42;;;18.40;99.90;;;;;;5055562;28;20469;-71
2022/08/05 00:44:42;;;;;;;4.72;1.73;;;18.40;99.90;;;;;;5040426;28;20037;-71
2022/08/05 00:47:08;;;;;;;5.95;1.50;;;18.40;99.90;;;;;;5056777;28;20055;-71
2022/08/05 00:49:33;;;;;;;6.60;1.50;;;18.40;99.90;;;;;;5057077;28;20048;-71
2022/08/05 00:52:00;;;;;;;5.70;1.30;;;18.50;99.90;;;;;;5060238;28;20389;-71
2022/08/05 00:54:26;;;;;;;5.38;1.60;;;18.50;99.90;;;;;;5061556;28;20060;-71
2022/08/05 00:56:51;;;;;;;7.70;1.70;;;18.40;99.90;;;;;;5061466;28;20052;-69
2022/08/05 00:59:17;;;;;;;6.22;1.75;;;18.50;99.90;;;;;;5061168;28;20106;-69
2022/08/05 01:01:43;;;;;;;4.45;1.42;;;18.40;99.90;;;;;;5066080;28;20041;-69
2022/08/05 01:04:08;;;;;;;5.38;1.50;;;18.50;99.90;;;;;;5061521;28;20047;-69
2022/08/05 01:06:34;;;;;;;4.88;1.40;;;18.40;99.90;;;;;;5063679;28;20143;-69
2022/08/05 01:08:59;;;;;;;5.18;1.27;;;18.40;99.90;;;;;;5055939;28;20141;-69
2022/08/05 01:11:38;;;;;;;4.18;1.50;;;18.40;99.90;;;;;;5062801;28;20058;-69
2022/08/05 01:14:30;;;;;;;5.88;1.73;;;18.40;99.90;;;;;;5058082;28;20109;-69
2022/08/05 01:17:10;;;;;;;5.15;1.80;;;18.40;99.90;;;;;;5060229;28;20120;-69
2022/08/05 01:19:53;;;;;;;4.68;1.35;;;18.40;99.90;;;;;;5050130;28;20064;-69
2022/08/05 01:22:53;;;;;;;6.13;1.65;;;18.30;99.90;;;;;;5044868;28;20028;-69
2022/08/05 01:25:56;;;;;;;6.03;1.27;;;18.30;99.90;;;;;;5063317;28;20525;-69
2022/08/05 01:28:30;;;;;;;4.85;1.45;;;18.30;99.90;;;;;;5061813;28;20032;-69
2022/08/05 01:31:21;;;;;;;7.82;2.15;;;18.30;99.90;;;;;;5051262;28;20636;-70
2022/08/05 01:34:06;;;;;;;8.82;1.58;;;18.30;99.90;;;;;;5042555;28;20062;-70
2022/08/05 01:36:38;;;;;;;8.27;2.03;;;18.30;99.90;;;;;;5052864;28;20048;-70
2022/08/05 01:39:04;;;;;;;8.25;2.22;;;18.30;99.90;;;;;;5061421;28;20475;-70
2022/08/05 01:41:34;;;;;;;5.35;1.60;;;18.30;99.90;;;;;;5059533;28;20036;-70
2022/08/05 01:44:02;;;;;;;5.65;1.65;;;18.30;99.90;;;;;;5059785;28;20331;-70
2022/08/05 01:46:30;;;;;;;5.78;1.60;;;18.30;99.90;;;;;;5061267;28;20459;-70
2022/08/05 01:48:57;;;;;;;3.95;1.75;;;18.20;99.90;;;;;;5061700;28;20049;-70
2022/08/05 01:51:25;;;;;;;3.63;1.60;;;18.20;99.90;;;;;;5065434;28;20334;-70
2022/08/05 01:53:54;;;;;;;4.07;1.40;;;18.30;99.90;;;;;;5066568;28;20169;-70
2022/08/05 01:56:21;;;;;;;4.35;1.50;;;18.20;99.90;;;;;;5059609;28;20057;-70
2022/08/05 01:58:50;;;;;;;6.07;1.80;;;18.20;99.90;;;;;;5057876;28;20040;-70
2022/08/05 02:01:19;;;;;;;6.20;1.70;;;18.20;99.90;;;;;;5047496;28;20048;-70
2022/08/05 02:03:46;;;;;;;6.05;1.73;;;18.20;99.90;;;;;;5067157;28;20468;-70
2022/08/05 02:06:13;;;;;;;6.07;1.83;;;18.20;99.90;;;;;;5065862;28;20100;-70
2022/08/05 02:08:39;;;;;;;6.63;1.70;;;18.20;99.90;;;;;;5067051;28;20492;-70
2022/08/05 02:11:09;;;;;;;5.18;1.83;;;18.20;99.90;;;;;;5045519;28;20104;-70
2022/08/05 02:13:48;;;;;;;4.70;1.80;;;18.20;99.90;;;;;;5061733;28;20455;-70
2022/08/05 02:16:23;;;;;;;5.78;2.05;;;18.20;99.90;;;;;;5063105;28;20049;-70
2022/08/05 02:18:58;;;;;;;5.53;1.90;;;18.10;99.90;;;;;;5070674;28;20055;-70
2022/08/05 02:21:35;;;;;;;7.22;2.05;;;18.10;99.90;;;;;;5057667;28;20048;-70
2022/08/05 02:24:07;;;;;;;8.73;1.90;;;18.10;99.90;;;;;;5059749;28;20119;-70
2022/08/05 02:26:38;;;;;;;7.78;2.08;;;18.10;99.90;;;;;;5061481;28;20090;-70
2022/08/05 02:29:06;;;;;;;7.50;1.95;;;18.10;99.90;;;;;;5043617;28;20056;-70
2022/08/05 02:31:35;;;;;;;4.07;1.50;;;18.10;99.90;;;;;;5064407;28;20124;-70
2022/08/05 02:34:05;;;;;;;7.30;2.05;;;18.00;99.90;;;;;;5063334;28;20127;-70
2022/08/05 02:36:34;;;;;;;7.10;1.98;;;18.00;99.90;;;;;;5064605;28;20049;-70
2022/08/05 02:39:02;;;;;;;5.30;1.88;;;18.00;99.90;;;;;;5061496;28;20060;-70
2022/08/05 02:41:30;;;;;;;6.03;2.10;;;18.00;99.90;;;;;;5063466;28;20435;-70
2022/08/05 02:43:58;;;;;;;5.45;1.90;;;18.00;99.90;;;;;;5053322;28;20047;-70
2022/08/05 02:46:25;;;;;;;5.82;2.00;;;18.00;99.90;;;;;;5059273;28;20184;-70
2022/08/05 02:48:52;;;;;;;6.32;2.13;;;18.00;99.90;;;;;;5063675;28;20060;-70
2022/08/05 02:51:19;;;;;;;8.35;2.42;;;18.00;99.90;;;;;;5066702;28;20397;-70
2022/08/05 02:53:46;;;;;;;6.25;2.40;;;17.90;99.90;;;;;;5063965;28;20064;-70
2022/08/05 02:56:12;;;;;;;6.80;2.60;;;17.90;99.90;;;;;;5065100;28;20131;-70
2022/08/05 02:58:40;;;;;;;5.32;2.55;;;17.90;99.90;;;;;;5063894;28;20044;-70
2022/08/05 03:01:09;;;;;;;5.57;2.72;;;17.90;99.90;;;;;;5063448;28;20047;-70
2022/08/05 03:03:39;;;;;;;5.25;2.85;;;17.80;99.90;;;;;;5069186;28;20048;-70
2022/08/05 03:06:09;;;;;;;8.52;2.75;;;17.80;99.90;;;;;;5064712;28;20052;-70
2022/08/05 03:08:36;;;;;;;5.10;3.17;;;17.80;99.90;;;;;;5037399;28;20130;-70
2022/08/05 03:11:02;;;;;;;6.43;3.13;;;17.80;99.90;;;;;;5052839;28;20134;-70
2022/08/05 03:13:28;;;;;;;7.00;3.50;;;17.80;99.90;;;;;;5058108;28;20044;-70
2022/08/05 03:15:54;;;;;;;7.00;3.28;;;17.80;99.90;;;;;;5066269;28;20235;-70
2022/08/05 03:18:20;;;;;;;7.93;3.83;;;17.80;99.90;;;;;;5062552;28;20120;-70
2022/08/05 03:20:46;;;;;;;11.25;3.97;;;17.70;99.90;;;;;;5065350;28;20040;-70
2022/08/05 03:23:13;;;;;;;8.45;3.75;;;17.70;99.90;;;;;;5060340;28;20052;-70
2022/08/05 03:25:40;;;;;;;7.20;3.47;;;17.70;99.90;;;;;;5060744;28;20049;-71
2022/08/05 03:28:07;;;;;;;7.75;3.85;;;17.70;99.90;;;;;;5059431;28;20063;-71
2022/08/05 03:30:34;;;;;;;8.65;3.80;;;17.70;99.90;;;;;;5057499;28;20493;-70
2022/08/05 03:33:04;;;;;;;7.72;3.75;;;17.70;99.90;;;;;;5055214;28;20036;-70
2022/08/05 03:35:31;;;;;;;7.95;4.40;;;17.80;99.90;;;;;;5066654;28;20040;-70
2022/08/05 03:38:01;;;;;;;7.13;3.80;;;17.70;99.90;;;;;;5060916;28;20041;-71
2022/08/05 03:40:28;;;;;;;8.63;3.88;;;17.70;99.90;;;;;;5042423;28;20045;-71
2022/08/05 03:42:53;;;;;;;10.40;4.00;;;17.70;99.90;;;;;;5065914;28;20041;-70
2022/08/05 03:45:20;;;;;;;7.30;4.00;;;17.70;99.90;;;;;;5062785;28;20086;-70
2022/08/05 03:47:45;;;;;;;5.53;3.70;;;17.70;99.90;;;;;;5063180;28;20051;-70
2022/08/05 03:50:11;;;;;;;10.05;4.20;;;17.70;99.90;;;;;;5060749;28;20111;-70
2022/08/05 03:53:03;;;;;;;8.35;3.97;;;17.70;99.90;;;;;;5058343;28;20091;-71
2022/08/05 03:55:34;;;;;;;9.43;3.90;;;17.70;99.90;;;;;;5065876;28;20053;-71
2022/08/05 03:58:01;;;;;;;7.15;4.00;;;17.60;99.90;;;;;;5060607;28;20045;-71
2022/08/05 04:00:30;;;;;;;8.38;3.90;;;17.60;99.90;;;;;;5049643;28;20514;-71
2022/08/05 04:03:00;;;;;;;9.73;4.20;;;17.60;99.90;;;;;;5065755;28;20390;-71
2022/08/05 04:05:31;;;;;;;6.30;3.90;;;17.60;99.90;;;;;;5062023;28;20127;-71
2022/08/05 04:07:59;;;;;;;10.57;4.25;;;17.60;99.90;;;;;;5064684;28;20044;-71
2022/08/05 04:10:27;;;;;;;9.45;3.97;;;17.60;99.90;;;;;;5060901;28;20406;-69
2022/08/05 04:12:52;;;;;;;10.80;4.25;;;17.60;99.90;;;;;;5063042;28;20033;-69
2022/08/05 04:15:18;;;;;;;7.22;3.90;;;17.60;99.90;;;;;;5058203;28;20434;-69
2022/08/05 04:17:44;;;;;;;10.50;3.80;;;17.60;99.90;;;;;;5057059;28;20067;-69
2022/08/05 04:20:21;;;;;;;8.63;3.75;;;17.50;99.90;;;;;;5053280;28;20532;-69
2022/08/05 04:22:47;;;;;;;8.88;3.90;;;17.60;99.90;;;;;;5061746;28;20068;-69
2022/08/05 04:25:13;;;;;;;8.45;4.07;;;17.50;99.90;;;;;;5058797;28;20064;-69
2022/08/05 04:27:38;;;;;;;6.40;3.75;;;17.50;99.90;;;;;;5058175;28;20106;-71
2022/08/05 04:30:06;;;;;;;8.07;3.67;;;17.60;99.90;;;;;;5061835;28;20187;-69
2022/08/05 04:32:32;;;;;;;8.30;3.90;;;17.50;99.90;;;;;;5044975;28;20097;-70
2022/08/05 04:34:57;;;;;;;6.95;3.80;;;17.50;99.90;;;;;;5068671;28;20128;-70
2022/08/05 04:37:23;;;;;;;9.00;4.80;;;17.60;99.90;;;;;;5061004;28;20446;-70
2022/08/05 04:39:49;;;;;;;7.80;3.97;;;17.50;99.90;;;;;;5060136;28;20075;-70
2022/08/05 04:42:14;;;;;;;9.02;4.20;;;17.60;99.90;;;;;;5058145;28;20434;-70
2022/08/05 04:44:40;;;;;;;7.20;4.18;;;17.50;99.90;;;;;;5054716;28;20127;-70
2022/08/05 04:47:06;;;;;;;10.60;4.68;;;17.50;99.90;;;;;;5059658;28;20473;-70
2022/08/05 04:49:32;;;;;;;7.50;4.05;;;17.50;99.90;;;;;;5061753;28;20055;-70
2022/08/05 04:51:57;;;;;;;6.55;3.88;;;17.50;99.90;;;;;;5063356;28;20047;-70
2022/08/05 04:54:25;;;;;;;6.35;3.67;;;17.50;99.90;;;;;;5060333;28;20167;-70
2022/08/05 04:56:52;;;;;;;10.45;4.20;;;17.50;99.90;;;;;;5060974;28;20045;-70
2022/08/05 04:59:19;;;;;;;8.05;3.88;;;17.50;99.90;;;;;;5061195;28;20059;-70
2022/08/05 05:01:45;;;;;;;7.60;3.92;;;17.50;99.90;;;;;;5059190;28;20043;-69
2022/08/05 05:04:11;;;;;;;8.73;4.20;;;17.50;99.90;;;;;;5055477;28;20028;-69
2022/08/05 05:06:37;;;;;;;5.78;3.85;;;17.50;99.90;;;;;;5054620;28;20125;-70
2022/08/05 05:09:03;;;;;;;9.20;3.90;;;17.40;99.90;;;;;;5053024;28;20075;-69
2022/08/05 05:11:29;;;;;;;7.47;3.58;;;17.50;99.90;;;;;;5060213;28;20049;-69
2022/08/05 05:13:54;;;;;;;7.50;4.30;;;17.40;99.90;;;;;;5056620;28;20401;-69
2022/08/05 05:16:20;;;;;;;9.93;4.05;;;17.40;99.90;;;;;;5062267;28;20423;-69
2022/08/05 05:18:46;;;;;;;8.68;4.07;;;17.50;99.90;;;;;;5063028;28;20036;-69
2022/08/05 05:21:11;;;;;;;8.82;3.97;;;17.40;99.90;;;;;;5064631;28;20052;-69
2022/08/05 05:23:37;;;;;;;7.25;3.70;;;17.40;99.90;;;;;;5063415;28;20598;-69
2022/08/05 05:26:04;;;;;;;10.65;3.92;;;17.40;99.90;;;;;;5062932;28;20059;-69
2022/08/05 05:28:29;;;;;;;7.03;4.07;;;17.50;99.90;;;;;;5067487;28;20032;-70
2022/08/05 05:30:55;;;;;;;6.32;3.78;;;17.50;99.90;;;;;;5062355;28;20087;-69
2022/08/05 05:33:21;;;;;;;7.15;3.53;;;17.40;99.90;;;;;;5052161;28;20048;-69
2022/08/05 05:35:47;;;;;;;5.03;3.40;;;17.50;99.90;;;;;;5060089;28;20357;-70
2022/08/05 05:38:13;;;;;;;6.88;4.07;;;17.50;99.90;;;;;;5066309;28;20040;-70
2022/08/05 05:40:40;;;;;;;6.32;3.50;;;17.50;99.90;;;;;;5062201;28;20040;-70
2022/08/05 05:43:06;;;;;;;6.40;3.45;;;17.50;99.90;;;;;;5060655;28;20033;-70
2022/08/05 05:45:32;;;;;;;7.82;4.10;;;17.50;99.90;;;;;;5060026;28;20040;-70
2022/08/05 05:47:58;;;;;;;7.60;3.75;;;17.50;99.90;;;;;;5062103;28;20028;-70
2022/08/05 05:50:24;;;;;;;8.45;3.85;;;17.50;99.90;;;;;;5062455;28;20213;-70
2022/08/05 05:52:49;;;;;;;7.57;3.30;;;17.50;99.90;;;;;;5059868;28;20036;-70
2022/08/05 05:55:17;;;;;;;9.27;3.90;;;17.50;99.90;;;;;;5052018;28;20136;-70
2022/08/05 05:57:45;;;;;;;7.72;3.67;;;17.50;99.90;;;;;;5058257;28;20033;-70
2022/08/05 06:00:16;;;;;;;5.53;3.53;;;17.50;99.90;;;;;;5057989;28;20044;-70
2022/08/05 06:02:43;;;;;;;8.70;3.70;;;17.60;99.90;;;;;;5065028;28;20079;-70
2022/08/05 06:05:10;;;;;;;5.63;3.05;;;17.60;99.90;;;;;;5060581;28;20096;-70
2022/08/05 06:07:37;;;;;;;5.22;3.25;;;17.60;99.90;;;;;;5061451;28;20041;-70
2022/08/05 06:10:04;;;;;;;4.95;2.67;;;17.70;99.90;;;;;;5061072;28;20150;-70
2022/08/05 06:12:30;;;;;;;6.25;2.92;;;17.90;99.90;;;;;;5064932;28;20056;-70
2022/08/05 06:14:55;;;;;;;4.85;3.22;;;18.00;99.90;;;;;;5054922;28;20045;-70
2022/08/05 06:17:21;;;;;;;7.15;2.75;;;18.20;99.90;;;;;;5057625;28;20045;-70
2022/08/05 06:19:47;;;;;;;7.55;2.60;;;18.30;99.90;;;;;;5036375;28;20598;-70
2022/08/05 06:22:23;;;;;;;7.15;3.78;;;18.30;99.90;;;;;;5064048;28;20493;-70
2022/08/05 06:24:48;;;;;;;6.30;2.80;;;18.30;99.90;;;;;;5058465;28;20210;-70
2022/08/05 06:27:14;;;;;;;7.95;2.50;;;18.40;99.90;;;;;;5063326;28;20143;-69
2022/08/05 06:29:40;;;;;;;4.90;2.80;;;18.30;99.90;;;;;;5058411;28;20059;-69
2022/08/05 06:32:05;;;;;;;8.73;3.05;;;18.30;99.90;;;;;;5061257;28;20052;-69
2022/08/05 06:34:31;;;;;;;6.57;2.28;;;18.30;99.90;;;;;;5057675;28;20047;-69
2022/08/05 06:36:57;;;;;;;6.18;2.42;;;18.40;99.90;;;;;;5045550;28;20117;-69
2022/08/05 06:39:22;;;;;;;6.28;2.20;;;18.50;99.90;;;;;;5061737;28;20052;-69
2022/08/05 06:41:48;;;;;;;6.03;2.05;;;18.40;99.90;;;;;;5055912;28;20040;-69
2022/08/05 06:44:14;;;;;;;6.53;1.98;;;18.50;99.90;;;;;;5059751;28;20059;-69
2022/08/05 06:46:40;;;;;;;3.25;1.63;;;18.70;99.90;;;;;;5053387;28;20487;-69
2022/08/05 06:49:06;;;;;;;3.17;1.25;;;18.80;99.90;;;;;;5063490;28;20071;-69
2022/08/05 06:51:31;;;;;;;4.18;1.20;;;18.90;99.90;;;;;;5062768;28;20052;-69
2022/08/05 06:53:58;;;;;;;4.00;1.20;;;18.90;99.90;;;;;;5067131;28;20394;-69
2022/08/05 06:56:24;;;;;;;5.35;1.08;;;19.10;99.90;;;;;;5063962;28;20044;-69
2022/08/05 06:58:50;;;;;;;4.10;1.75;;;19.20;99.90;;;;;;5064895;28;20036;-69
2022/08/05 07:01:16;;;;;;;3.95;1.02;;;19.40;99.90;;;;;;5060071;28;20087;-69
2022/08/05 07:03:41;;;;;;;4.03;1.00;;;19.60;99.90;;;;;;5065560;28;20048;-69
2022/08/05 07:06:07;;;;;;;1.88;0.90;;;19.70;99.90;;;;;;5073909;28;20130;-69
2022/08/05 07:08:33;;;;;;;3.80;0.82;;;19.80;99.90;;;;;;5060528;28;20051;-69
2022/08/05 07:10:58;;;;;;;2.42;1.10;;;19.70;99.90;;;;;;5056252;28;20489;-69
2022/08/05 07:18:53;;;;;;;2.58;1.10;;;19.60;99.90;;;;;;5063836;28;20063;-69
2022/08/05 07:21:18;;;;;;;4.65;1.20;;;19.60;99.90;;;;;;5063348;28;20041;-70
2022/08/05 07:23:44;;;;;;;3.08;0.88;;;19.60;99.90;;;;;;5062226;28;20047;-70
2022/08/05 07:26:10;;;;;;;2.42;0.57;;;19.70;99.90;;;;;;5059087;28;20476;-70
2022/08/05 07:28:36;;;;;;;1.75;0.70;;;19.80;99.90;;;;;;5060259;28;20359;-70
2022/08/05 07:31:01;;;;;;;3.50;0.65;;;20.00;99.90;;;;;;5059025;28;20033;-70
2022/08/05 07:33:27;;;;;;;3.28;0.90;;;20.10;99.90;;;;;;5057096;28;20035;-70
2022/08/05 07:35:53;;;;;;;3.50;0.40;;;20.20;99.90;;;;;;5063157;28;20102;-70
2022/08/05 07:38:18;;;;;;;3.15;0.70;;;20.20;99.90;;;;;;5056991;28;20139;-70
2022/08/05 07:40:44;;;;;;;3.17;0.80;;;20.30;99.90;;;;;;5063082;28;20041;-70
2022/08/05 07:43:12;;;;;;;1.77;0.50;;;20.40;99.90;;;;;;5062446;28;20113;-70
2022/08/05 07:45:39;;;;;;;2.88;0.73;;;20.50;99.90;;;;;;5061005;28;20094;-70
2022/08/05 07:48:05;;;;;;;4.18;0.70;;;20.60;99.90;;;;;;5061708;28;20048;-70
2022/08/05 07:50:30;;;;;;;2.08;0.55;;;20.70;99.90;;;;;;5060226;28;20093;-70
2022/08/05 07:52:56;;;;;;;3.60;0.93;;;20.60;99.90;;;;;;5059082;28;20040;-70
2022/08/05 07:55:22;;;;;;;2.60;0.70;;;20.70;99.90;;;;;;5062050;28;20485;-70
2022/08/05 07:57:48;;;;;;;2.05;0.47;;;20.70;99.90;;;;;;5055223;28;20389;-70
2022/08/05 08:00:14;;;;;;;4.03;0.77;;;20.80;99.90;;;;;;5059604;28;20158;-70
2022/08/05 08:02:39;;;;;;;2.35;0.50;;;20.90;99.90;;;;;;5058469;28;20445;-70
2022/08/05 08:05:05;;;;;;;3.08;0.70;;;20.80;99.90;;;;;;5060024;28;20044;-70
2022/08/05 08:07:31;;;;;;;2.05;0.52;;;20.80;99.90;;;;;;5063461;28;20047;-70
2022/08/05 08:09:57;;;;;;;1.58;0.50;;;20.80;99.90;;;;;;5063782;28;20071;-70
2022/08/05 08:12:23;;;;;;;3.22;0.70;;;20.80;99.90;;;;;;5064531;28;20477;-70
2022/08/05 08:14:49;;;;;;;2.10;0.40;;;20.90;99.90;;;;;;5058332;28;20041;-70
2022/08/05 08:17:14;;;;;;;1.77;0.60;;;21.00;99.90;;;;;;5063063;28;20051;-70
2022/08/05 08:19:41;;;;;;;3.13;0.65;;;21.10;99.90;;;;;;5063461;28;20041;-70
2022/08/05 08:22:08;;;;;;;2.05;0.60;;;21.00;99.90;;;;;;5066838;28;20384;-70
2022/08/05 08:24:34;;;;;;;4.18;0.80;;;21.00;99.90;;;;;;5060973;28;20059;-70
2022/08/05 08:27:00;;;;;;;4.10;0.80;;;21.10;99.90;;;;;;5064332;28;20423;-70
2022/08/05 08:29:26;;;;;;;2.97;0.80;;;21.20;99.90;;;;;;5064412;28;20045;-70
2022/08/05 08:31:52;;;;;;;4.00;0.70;;;21.20;99.90;;;;;;5062854;28;20053;-70
2022/08/05 08:34:20;;;;;;;1.80;0.57;;;21.20;99.90;;;;;;5062070;28;20044;-70
2022/08/05 08:36:46;;;;;;;2.20;0.50;;;21.10;99.90;;;;;;5063804;28;20037;-70
2022/08/05 08:39:12;;;;;;;3.10;0.55;;;21.40;99.90;;;;;;5061733;28;20040;-70
2022/08/05 08:41:40;;;;;;;1.95;0.40;;;21.70;99.90;;;;;;5060395;28;20376;-70
2022/08/05 08:44:11;;;;;;;1.95;0.40;;;21.90;99.90;;;;;;5055426;28;20037;-70
2022/08/05 08:46:37;;;;;;;1.40;0.32;;;21.90;99.90;;;;;;5059282;28;20040;-70
2022/08/05 08:49:03;;;;;;;1.33;0.30;;;21.90;99.90;;;;;;5063156;28;20045;-70
2022/08/05 08:51:33;;;;;;;3.30;0.38;;;21.90;99.90;;;;;;5043180;28;20145;-70
2022/08/05 08:53:59;;;;;;;2.85;0.30;;;22.00;99.90;;;;;;5060929;28;20155;-70
2022/08/05 08:56:25;;;;;;;4.80;0.98;;;22.20;99.90;;;;;;5062017;28;20057;-70
2022/08/05 08:58:54;;;;;;;3.83;0.40;;;22.20;99.00;;;;;;5063338;28;20040;-70
2022/08/05 09:01:20;;;;;;;2.80;0.40;;;22.20;98.90;;;;;;5065035;28;20120;-70
2022/08/05 09:03:50;;;;;;;1.65;0.25;;;22.00;98.80;;;;;;5065763;28;20116;-70
2022/08/05 09:06:16;;;;;;;2.83;0.52;;;21.90;96.80;;;;;;5069828;28;20072;-70
2022/08/05 09:08:42;;;;;;;1.40;0.52;;;21.70;95.80;;;;;;5061767;28;20084;-70
2022/08/05 09:11:08;;;;;;;2.25;0.40;;;21.90;96.40;;;;;;5054250;28;20044;-70
2022/08/05 09:13:35;;;;;;;1.20;0.20;;;22.30;96.20;;;;;;5062306;28;20033;-70
2022/08/05 09:16:02;;;;;;;1.73;0.30;;;22.70;95.40;;;;;;5062413;28;20047;-71
2022/08/05 09:18:28;;;;;;;2.10;0.30;;;22.90;92.30;;;;;;5064586;28;20060;-71
2022/08/05 09:20:54;;;;;;;2.00;0.20;;;23.30;91.50;;;;;;5059021;28;20044;-71
2022/08/05 09:23:20;;;;;;;2.83;0.20;;;23.50;90.20;;;;;;5062357;28;20471;-70
2022/08/05 09:25:49;;;;;;;2.90;0.40;;;23.90;89.30;;;;;;5056294;28;20080;-70
2022/08/05 09:28:23;;;;;;;2.72;0.30;;;24.20;86.20;;;;;;5062372;28;20051;-70
2022/08/05 09:30:52;;;;;;;1.48;0.30;;;24.70;83.90;;;;;;5056532;28;20044;-70
2022/08/05 09:33:18;;;;;;;2.00;0.20;;;24.80;84.20;;;;;;5056399;28;20121;-70
2022/08/05 09:36:04;;;;;;;2.28;0.22;;;24.80;83.90;;;;;;5057294;28;20053;-70
2022/08/05 09:38:31;;;;;;;1.10;0.20;;;24.60;77.10;;;;;;5066608;28;20403;-70
2022/08/05 09:41:05;;;;;;;2.17;0.20;;;24.10;75.70;;;;;;5058525;28;20036;-71
2022/08/05 09:43:32;;;;;;;1.33;0.20;;;24.00;71.00;;;;;;5063898;28;20537;-71
2022/08/05 09:45:58;;;;;;;1.98;0.20;;;24.10;70.30;;;;;;5063157;28;20049;-70
2022/08/05 09:48:28;;;;;;;1.42;0.20;;;24.40;70.80;;;;;;5063499;28;20044;-70
2022/08/05 09:51:12;;;;;;;0.88;0.10;;;24.90;70.80;;;;;;5055391;28;20060;-71
2022/08/05 09:53:49;;;;;;;3.72;0.30;;;25.30;65.10;;;;;;5053275;28;20136;-71
2022/08/05 09:56:24;;;;;;;0.77;0.17;;;25.50;68.00;;;;;;5052866;28;20064;-71
2022/08/05 09:59:07;;;;;;;2.42;0.20;;;25.60;65.70;;;;;;5063433;28;20040;-70
2022/08/05 10:01:35;;;;;;;2.90;0.30;;;25.70;61.00;;;;;;5057586;28;20037;-70
2022/08/05 10:04:07;;;;;;;2.05;0.20;;;25.80;64.40;;;;;;5062391;28;20403;-70
2022/08/05 10:06:33;;;;;;;3.85;0.30;;;26.00;64.80;;;;;;5059186;28;20111;-70
2022/08/05 10:09:14;;;;;;;2.17;0.28;;;26.00;63.80;;;;;;5061538;28;20052;-70
2022/08/05 10:11:40;;;;;;;2.20;0.30;;;26.10;62.90;;;;;;5060649;28;20087;-70
2022/08/05 10:14:31;;;;;;;1.30;0.10;;;25.90;63.20;;;;;;5063802;28;20521;-70
2022/08/05 10:17:14;;;;;;;1.45;0.20;;;26.00;53.20;;;;;;5057334;28;20037;-70
2022/08/05 10:19:40;;;;;;;1.08;0.17;;;26.00;55.10;;;;;;5048212;28;20063;-70
2022/08/05 10:22:09;;;;;;;1.05;0.13;;;26.00;55.80;;;;;;5059860;28;20041;-70
2022/08/05 10:24:36;;;;;;;1.73;0.15;;;26.00;55.30;;;;;;5067364;28;20040;-71
2022/08/05 10:27:02;;;;;;;0.77;0.13;;;25.80;53.60;;;;;;5063006;28;20067;-71
2022/08/05 10:29:31;;;;;;;2.33;0.20;;;25.60;54.80;;;;;;5063904;28;20032;-71
2022/08/05 10:31:57;;;;;;;1.65;0.20;;;25.60;55.20;;;;;;5067679;28;20052;-70
2022/08/05 10:34:23;;;;;;;1.95;0.22;;;25.60;53.40;;;;;;5065547;28;20465;-71
2022/08/05 10:36:49;;;;;;;1.88;0.20;;;25.80;52.40;;;;;;5060846;28;20095;-71
2022/08/05 10:39:23;;;;;;;1.45;0.10;;;26.00;53.50;;;;;;5056722;28;20037;-71
2022/08/05 10:42:01;;;;;;;2.38;0.10;;;25.90;49.90;;;;;;5061157;28;20051;-70
2022/08/05 10:44:28;;;;;;;1.58;0.10;;;26.00;52.30;;;;;;5053892;28;20045;-71
2022/08/05 10:46:55;;;;;;;1.13;0.10;;;26.10;52.50;;;;;;5060753;28;20131;-71
2022/08/05 10:49:22;;;;;;;1.15;0.10;;;26.10;49.20;;;;;;5067293;28;20087;-70
2022/08/05 10:51:56;;;;;;;1.20;0.10;;;26.30;50.80;;;;;;5046764;28;20052;-70
2022/08/05 10:54:23;;;;;;;1.65;0.20;;;26.30;48.70;;;;;;5059644;28;20140;-68
2022/08/05 10:56:56;;;;;;;1.70;0.10;;;26.40;47.10;;;;;;5069208;28;20032;-67
2022/08/05 10:59:26;;;;;;;1.50;0.17;;;26.40;46.70;;;;;;5066088;28;20040;-67
2022/08/05 11:02:09;;;;;;;2.97;0.20;;;26.40;43.70;;;;;;5066770;28;20029;-65
2022/08/05 11:04:46;;;;;;;1.13;0.10;;;26.00;43.60;;;;;;5061388;28;20435;-65
2022/08/05 11:07:16;;;;;;;1.95;0.10;;;25.70;43.00;;;;;;5061742;28;20087;-65
2022/08/05 11:09:46;;;;;;;1.13;0.00;;;25.60;44.90;;;;;;5063713;28;20045;-66
2022/08/05 11:12:40;;;;;;;0.40;0.10;;;25.60;44.70;;;;;;5063592;28;20054;-66
2022/08/05 11:15:15;;;;;;;1.02;0.00;;;25.70;43.40;;;;;;5066334;28;20448;-65
2022/08/05 11:17:43;;;;;;;0.50;0.10;;;25.80;43.40;;;;;;5068471;28;20044;-66
2022/08/05 11:20:35;;;;;;;0.40;0.08;;;25.80;43.10;;;;;;5066404;28;20082;-66
2022/08/05 11:23:39;;;;;;;1.80;0.10;;;26.10;41.00;;;;;;5066927;28;20504;-66
2022/08/05 11:26:15;;;;;;;2.05;0.10;;;25.90;38.50;;;;;;5065213;28;20047;-65
2022/08/05 11:28:43;;;;;;;1.17;0.10;;;25.90;42.00;;;;;;5064183;28;20037;-65
2022/08/05 11:31:09;;;;;;;0.57;0.10;;;26.00;42.10;;;;;;5056098;28;20112;-65
2022/08/05 11:33:37;;;;;;;1.00;0.10;;;26.00;42.00;;;;;;5060159;28;20085;-64
2022/08/05 11:36:04;;;;;;;0.73;0.20;;;26.30;44.40;;;;;;5054546;28;20045;-66
2022/08/05 11:38:42;;;;;;;3.33;0.15;;;26.10;42.50;;;;;;5065955;28;20044;-66
2022/08/05 11:41:27;;;;;;;1.17;0.20;;;25.70;43.10;;;;;;5065869;28;20045;-66
2022/08/05 11:44:05;;;;;;;1.60;0.15;;;25.20;44.60;;;;;;5065476;28;20086;-66
2022/08/05 11:46:41;;;;;;;1.67;0.10;;;24.90;45.60;;;;;;5063191;28;20442;-66
2022/08/05 11:49:14;;;;;;;0.80;0.10;;;24.60;46.60;;;;;;5064917;28;20044;-69
2022/08/05 11:51:44;;;;;;;1.40;0.10;;;24.20;47.80;;;;;;5060430;28;20037;-69
2022/08/05 11:54:12;;;;;;;1.73;0.30;;;24.40;47.80;;;;;;5064061;28;20048;-68
2022/08/05 11:56:49;;;;;;;1.05;0.08;;;24.50;47.70;;;;;;5069524;28;20051;-67
2022/08/05 11:59:16;;;;;;;0.75;0.10;;;24.30;47.90;;;;;;5067561;28;20043;-67
2022/08/05 12:02:12;;;;;;;1.95;0.17;;;24.10;49.20;;;;;;5056563;28;20053;-67
2022/08/05 12:04:45;;;;;;;1.42;0.20;;;24.00;50.80;;;;;;5065465;28;20093;-67
2022/08/05 12:07:15;;;;;;;0.97;0.10;;;24.10;50.50;;;;;;5065933;28;20056;-67
2022/08/05 12:09:53;;;;;;;1.75;0.10;;;24.50;49.70;;;;;;5065723;28;20303;-68
2022/08/05 12:12:23;;;;;;;3.63;0.20;;;24.70;51.50;;;;;;5061937;28;20703;-67
2022/08/05 12:14:49;;;;;;;2.10;0.10;;;25.10;49.80;;;;;;5064755;28;20056;-68
2022/08/05 12:17:16;;;;;;;1.80;0.25;;;25.30;50.40;;;;;;5055536;28;20061;-70
2022/08/05 12:19:50;;;;;;;0.38;0.10;;;25.10;50.60;;;;;;5059758;28;20059;-67
2022/08/05 12:22:19;;;;;;;1.70;0.10;;;24.90;51.20;;;;;;5057392;28;20391;-68
2022/08/05 12:24:46;;;;;;;3.47;0.20;;;24.60;51.30;;;;;;5068650;28;20048;-68
2022/08/05 12:27:23;;;;;;;1.42;0.10;;;24.00;51.40;;;;;;5061060;28;20492;-63
2022/08/05 12:30:07;;;;;;;2.83;0.30;;;23.90;52.50;;;;;;5062577;28;20048;-63
2022/08/05 12:32:54;;;;;;;3.30;0.20;;;23.80;54.30;;;;;;5060208;28;20109;-63
2022/08/05 12:35:22;;;;;;;1.13;0.10;;;23.90;55.20;;;;;;5063478;28;20967;-64
2022/08/05 12:37:48;;;;;;;1.50;0.20;;;24.00;55.30;;;;;;5065624;28;20714;-68
2022/08/05 12:40:14;;;;;;;1.35;0.10;;;23.70;52.70;;;;;;5066795;28;20087;-69
2022/08/05 12:42:40;;;;;;;2.13;0.15;;;23.50;54.10;;;;;;5053049;28;20140;-69
2022/08/05 12:45:08;;;;;;;3.47;0.30;;;23.30;55.10;;;;;;5055587;28;20049;-68
2022/08/05 12:47:34;;;;;;;2.85;0.20;;;23.10;55.50;;;;;;5060330;28;20526;-68
2022/08/05 12:50:10;;;;;;;0.55;0.20;;;23.10;56.10;;;;;;5060826;28;20041;-68
2022/08/05 12:52:37;;;;;;;1.30;0.10;;;23.20;56.00;;;;;;5062969;28;20040;-66
2022/08/05 12:55:16;;;;;;;0.70;0.10;;;23.20;54.20;;;;;;5063070;28;20057;-66
2022/08/05 12:57:42;;;;;;;1.23;0.10;;;23.10;55.00;;;;;;5059848;28;20124;-66
2022/08/05 13:00:20;;;;;;;0.57;0.10;;;22.90;54.50;;;;;;5061765;28;20165;-66